sensor_id;sensor_type;location;lat;lon;timestamp;P1;durP1;ratioP1;P2;durP2;ratioP2
59306;SDS011;47983;53.016;-2.260;2023-01-05T00:01:50;4.95;;;1.45;;
59306;SDS011;47983;53.016;-2.260;2023-01-05T00:04:18;13.35;;;2.03;;
59306;SDS011;47983;53.016;-2.260;2023-01-05T00:06:46;11.32;;;1.55;;
59306;SDS011;47983;53.016;-2.260;2023-01-05T00:09:15;4.63;;;1.00;;
59306;SDS011;47983;53.016;-2.260;2023-01-05T00:11:43;6.43;;;0.88;;
59306;SDS011;47983;53.016;-2.260;2023-01-05T00:14:30;10.52;;;1.83;;
59306;SDS011;47983;53.016;-2.260;2023-01-05T00:17:18;7.70;;;0.80;;
59306;SDS011;47983;53.016;-2.260;2023-01-05T00:20:10;6.50;;;0.93;;
59306;SDS011;47983;53.016;-2.260;2023-01-05T00:23:02;6.13;;;1.40;;
59306;SDS011;47983;53.016;-2.260;2023-01-05T00:25:31;6.50;;;0.88;;
59306;SDS011;47983;53.016;-2.260;2023-01-05T00:28:02;10.02;;;0.93;;
59306;SDS011;47983;53.016;-2.260;2023-01-05T00:30:31;8.90;;;1.30;;
59306;SDS011;47983;53.016;-2.260;2023-01-05T00:33:06;11.02;;;2.20;;
59306;SDS011;47983;53.016;-2.260;2023-01-05T00:35:35;5.78;;;1.40;;
59306;SDS011;47983;53.016;-2.260;2023-01-05T00:38:03;7.18;;;1.38;;
59306;SDS011;47983;53.016;-2.260;2023-01-05T00:40:33;9.07;;;0.98;;
59306;SDS011;47983;53.016;-2.260;2023-01-05T00:43:01;14.55;;;2.58;;
59306;SDS011;47983;53.016;-2.260;2023-01-05T00:45:29;8.23;;;1.40;;
59306;SDS011;47983;53.016;-2.260;2023-01-05T00:47:57;5.60;;;0.93;;
59306;SDS011;47983;53.016;-2.260;2023-01-05T00:50:25;8.55;;;1.77;;
59306;SDS011;47983;53.016;-2.260;2023-01-05T00:52:52;4.45;;;1.20;;
59306;SDS011;47983;53.016;-2.260;2023-01-05T00:55:20;9.68;;;1.33;;
59306;SDS011;47983;53.016;-2.260;2023-01-05T00:57:48;11.82;;;1.70;;
59306;SDS011;47983;53.016;-2.260;2023-01-05T01:00:16;9.38;;;2.20;;
59306;SDS011;47983;53.016;-2.260;2023-01-05T01:02:46;9.90;;;1.45;;
59306;SDS011;47983;53.016;-2.260;2023-01-05T01:05:16;5.05;;;0.80;;
59306;SDS011;47983;53.016;-2.260;2023-01-05T01:07:45;15.23;;;2.13;;
59306;SDS011;47983;53.016;-2.260;2023-01-05T01:10:14;6.43;;;0.90;;
59306;SDS011;47983;53.016;-2.260;2023-01-05T01:12:42;6.35;;;1.17;;
59306;SDS011;47983;53.016;-2.260;2023-01-05T01:15:10;9.05;;;1.35;;
59306;SDS011;47983;53.016;-2.260;2023-01-05T01:17:37;18.63;;;1.70;;
59306;SDS011;47983;53.016;-2.260;2023-01-05T01:20:05;12.00;;;1.30;;
59306;SDS011;47983;53.016;-2.260;2023-01-05T01:22:33;15.35;;;1.70;;
59306;SDS011;47983;53.016;-2.260;2023-01-05T01:25:01;13.98;;;1.60;;
59306;SDS011;47983;53.016;-2.260;2023-01-05T01:27:29;9.90;;;1.95;;
59306;SDS011;47983;53.016;-2.260;2023-01-05T01:29:57;8.75;;;1.10;;
59306;SDS011;47983;53.016;-2.260;2023-01-05T01:32:24;10.70;;;2.60;;
59306;SDS011;47983;53.016;-2.260;2023-01-05T01:34:52;5.18;;;1.27;;
59306;SDS011;47983;53.016;-2.260;2023-01-05T01:37:21;11.70;;;1.83;;
59306;SDS011;47983;53.016;-2.260;2023-01-05T01:39:51;13.48;;;1.40;;
59306;SDS011;47983;53.016;-2.260;2023-01-05T01:42:19;7.80;;;1.65;;
59306;SDS011;47983;53.016;-2.260;2023-01-05T01:44:56;10.77;;;1.40;;
59306;SDS011;47983;53.016;-2.260;2023-01-05T01:47:52;7.45;;;1.20;;
59306;SDS011;47983;53.016;-2.260;2023-01-05T01:53:25;13.68;;;1.05;;
59306;SDS011;47983;53.016;-2.260;2023-01-05T01:55:58;10.00;;;1.27;;
59306;SDS011;47983;53.016;-2.260;2023-01-05T01:58:29;5.22;;;1.77;;
59306;SDS011;47983;53.016;-2.260;2023-01-05T02:00:58;10.43;;;1.50;;
59306;SDS011;47983;53.016;-2.260;2023-01-05T02:03:30;12.07;;;1.38;;
59306;SDS011;47983;53.016;-2.260;2023-01-05T02:05:58;9.95;;;1.25;;
59306;SDS011;47983;53.016;-2.260;2023-01-05T02:08:27;9.48;;;1.67;;
59306;SDS011;47983;53.016;-2.260;2023-01-05T02:24:49;9.85;;;1.63;;
59306;SDS011;47983;53.016;-2.260;2023-01-05T02:27:26;8.20;;;1.60;;
59306;SDS011;47983;53.016;-2.260;2023-01-05T02:32:54;10.50;;;0.90;;
59306;SDS011;47983;53.016;-2.260;2023-01-05T02:41:15;5.60;;;1.65;;
59306;SDS011;47983;53.016;-2.260;2023-01-05T02:43:50;8.65;;;1.42;;
59306;SDS011;47983;53.016;-2.260;2023-01-05T02:46:19;16.00;;;3.13;;
59306;SDS011;47983;53.016;-2.260;2023-01-05T02:48:47;15.57;;;1.60;;
59306;SDS011;47983;53.016;-2.260;2023-01-05T02:51:19;9.02;;;1.35;;
59306;SDS011;47983;53.016;-2.260;2023-01-05T02:53:54;11.45;;;1.35;;
59306;SDS011;47983;53.016;-2.260;2023-01-05T02:56:39;12.77;;;2.70;;
59306;SDS011;47983;53.016;-2.260;2023-01-05T02:59:35;9.90;;;1.45;;
59306;SDS011;47983;53.016;-2.260;2023-01-05T03:02:12;11.05;;;2.00;;
59306;SDS011;47983;53.016;-2.260;2023-01-05T03:04:57;14.05;;;1.65;;
59306;SDS011;47983;53.016;-2.260;2023-01-05T03:07:31;10.95;;;1.20;;
59306;SDS011;47983;53.016;-2.260;2023-01-05T03:10:04;13.77;;;2.10;;
59306;SDS011;47983;53.016;-2.260;2023-01-05T03:12:54;11.05;;;1.30;;
59306;SDS011;47983;53.016;-2.260;2023-01-05T03:15:42;9.30;;;1.20;;
59306;SDS011;47983;53.016;-2.260;2023-01-05T03:18:17;6.63;;;1.23;;
59306;SDS011;47983;53.016;-2.260;2023-01-05T03:20:50;10.27;;;1.30;;
59306;SDS011;47983;53.016;-2.260;2023-01-05T03:23:20;7.03;;;0.85;;
59306;SDS011;47983;53.016;-2.260;2023-01-05T03:26:08;9.23;;;1.45;;
59306;SDS011;47983;53.016;-2.260;2023-01-05T03:28:58;7.45;;;1.27;;
59306;SDS011;47983;53.016;-2.260;2023-01-05T03:32:34;10.70;;;1.85;;
59306;SDS011;47983;53.016;-2.260;2023-01-05T03:35:10;8.75;;;1.35;;
59306;SDS011;47983;53.016;-2.260;2023-01-05T03:40:44;12.20;;;1.33;;
59306;SDS011;47983;53.016;-2.260;2023-01-05T03:43:17;6.22;;;1.05;;
59306;SDS011;47983;53.016;-2.260;2023-01-05T03:45:52;6.28;;;1.13;;
59306;SDS011;47983;53.016;-2.260;2023-01-05T03:48:25;6.28;;;1.17;;
59306;SDS011;47983;53.016;-2.260;2023-01-05T03:50:54;8.07;;;1.00;;
59306;SDS011;47983;53.016;-2.260;2023-01-05T03:53:24;12.45;;;1.30;;
59306;SDS011;47983;53.016;-2.260;2023-01-05T03:55:52;7.88;;;1.58;;
59306;SDS011;47983;53.016;-2.260;2023-01-05T03:58:20;9.27;;;1.77;;
59306;SDS011;47983;53.016;-2.260;2023-01-05T04:00:49;11.90;;;1.00;;
59306;SDS011;47983;53.016;-2.260;2023-01-05T04:03:19;9.65;;;1.52;;
59306;SDS011;47983;53.016;-2.260;2023-01-05T04:05:54;9.98;;;1.13;;
59306;SDS011;47983;53.016;-2.260;2023-01-05T04:08:25;12.43;;;1.30;;
59306;SDS011;47983;53.016;-2.260;2023-01-05T04:10:53;9.13;;;1.23;;
59306;SDS011;47983;53.016;-2.260;2023-01-05T04:13:22;10.57;;;1.25;;
59306;SDS011;47983;53.016;-2.260;2023-01-05T04:15:53;9.38;;;1.20;;
59306;SDS011;47983;53.016;-2.260;2023-01-05T04:18:21;12.52;;;2.20;;
59306;SDS011;47983;53.016;-2.260;2023-01-05T04:20:49;26.92;;;3.33;;
59306;SDS011;47983;53.016;-2.260;2023-01-05T04:23:17;9.70;;;1.45;;
59306;SDS011;47983;53.016;-2.260;2023-01-05T04:25:45;10.15;;;1.17;;
59306;SDS011;47983;53.016;-2.260;2023-01-05T04:28:19;11.27;;;1.10;;
59306;SDS011;47983;53.016;-2.260;2023-01-05T04:30:48;8.50;;;1.80;;
59306;SDS011;47983;53.016;-2.260;2023-01-05T04:33:17;15.43;;;1.77;;
59306;SDS011;47983;53.016;-2.260;2023-01-05T04:35:47;16.27;;;1.42;;
59306;SDS011;47983;53.016;-2.260;2023-01-05T04:38:16;10.25;;;1.65;;
59306;SDS011;47983;53.016;-2.260;2023-01-05T04:40:48;9.65;;;1.42;;
59306;SDS011;47983;53.016;-2.260;2023-01-05T04:43:18;9.73;;;1.27;;
59306;SDS011;47983;53.016;-2.260;2023-01-05T04:45:48;6.57;;;1.17;;
59306;SDS011;47983;53.016;-2.260;2023-01-05T04:48:17;11.98;;;1.58;;
59306;SDS011;47983;53.016;-2.260;2023-01-05T04:50:50;11.57;;;1.05;;
59306;SDS011;47983;53.016;-2.260;2023-01-05T04:53:21;8.95;;;2.05;;
59306;SDS011;47983;53.016;-2.260;2023-01-05T04:55:50;6.55;;;1.50;;
59306;SDS011;47983;53.016;-2.260;2023-01-05T04:58:19;13.75;;;2.00;;
59306;SDS011;47983;53.016;-2.260;2023-01-05T05:00:48;10.57;;;1.88;;
59306;SDS011;47983;53.016;-2.260;2023-01-05T05:03:17;17.55;;;2.25;;
59306;SDS011;47983;53.016;-2.260;2023-01-05T05:05:47;11.15;;;3.15;;
59306;SDS011;47983;53.016;-2.260;2023-01-05T05:08:15;10.90;;;2.03;;
59306;SDS011;47983;53.016;-2.260;2023-01-05T05:10:44;17.98;;;2.33;;
59306;SDS011;47983;53.016;-2.260;2023-01-05T05:13:12;12.10;;;1.75;;
59306;SDS011;47983;53.016;-2.260;2023-01-05T05:15:39;18.20;;;1.73;;
59306;SDS011;47983;53.016;-2.260;2023-01-05T05:18:07;14.77;;;2.13;;
59306;SDS011;47983;53.016;-2.260;2023-01-05T05:20:38;24.77;;;2.97;;
59306;SDS011;47983;53.016;-2.260;2023-01-05T05:23:10;14.80;;;2.70;;
59306;SDS011;47983;53.016;-2.260;2023-01-05T05:25:38;20.65;;;2.35;;
59306;SDS011;47983;53.016;-2.260;2023-01-05T05:28:05;20.65;;;2.30;;
59306;SDS011;47983;53.016;-2.260;2023-01-05T05:30:33;21.92;;;2.80;;
59306;SDS011;47983;53.016;-2.260;2023-01-05T05:33:01;21.30;;;2.30;;
59306;SDS011;47983;53.016;-2.260;2023-01-05T05:35:28;23.52;;;3.60;;
59306;SDS011;47983;53.016;-2.260;2023-01-05T05:37:56;20.00;;;3.40;;
59306;SDS011;47983;53.016;-2.260;2023-01-05T05:40:23;19.83;;;2.00;;
59306;SDS011;47983;53.016;-2.260;2023-01-05T05:42:52;20.85;;;2.65;;
59306;SDS011;47983;53.016;-2.260;2023-01-05T05:45:20;22.13;;;3.88;;
59306;SDS011;47983;53.016;-2.260;2023-01-05T05:47:48;28.65;;;4.45;;
59306;SDS011;47983;53.016;-2.260;2023-01-05T05:50:15;23.33;;;2.67;;
59306;SDS011;47983;53.016;-2.260;2023-01-05T05:55:13;23.65;;;2.20;;
59306;SDS011;47983;53.016;-2.260;2023-01-05T05:57:41;19.98;;;2.65;;
59306;SDS011;47983;53.016;-2.260;2023-01-05T06:00:08;21.98;;;3.58;;
59306;SDS011;47983;53.016;-2.260;2023-01-05T06:02:39;22.33;;;4.00;;
59306;SDS011;47983;53.016;-2.260;2023-01-05T06:05:07;27.67;;;4.60;;
59306;SDS011;47983;53.016;-2.260;2023-01-05T06:07:35;27.83;;;2.88;;
59306;SDS011;47983;53.016;-2.260;2023-01-05T06:10:03;30.85;;;3.03;;
59306;SDS011;47983;53.016;-2.260;2023-01-05T06:12:31;23.52;;;3.15;;
59306;SDS011;47983;53.016;-2.260;2023-01-05T06:14:59;20.60;;;2.58;;
59306;SDS011;47983;53.016;-2.260;2023-01-05T06:17:26;22.33;;;4.00;;
59306;SDS011;47983;53.016;-2.260;2023-01-05T06:19:54;32.83;;;3.38;;
59306;SDS011;47983;53.016;-2.260;2023-01-05T06:22:22;33.80;;;3.58;;
59306;SDS011;47983;53.016;-2.260;2023-01-05T06:24:49;26.88;;;3.03;;
59306;SDS011;47983;53.016;-2.260;2023-01-05T06:27:17;31.42;;;3.25;;
59306;SDS011;47983;53.016;-2.260;2023-01-05T06:29:45;28.45;;;3.53;;
59306;SDS011;47983;53.016;-2.260;2023-01-05T06:32:12;28.92;;;3.10;;
59306;SDS011;47983;53.016;-2.260;2023-01-05T06:34:40;25.17;;;3.65;;
59306;SDS011;47983;53.016;-2.260;2023-01-05T06:37:07;26.25;;;3.65;;
59306;SDS011;47983;53.016;-2.260;2023-01-05T06:39:35;34.28;;;3.80;;
59306;SDS011;47983;53.016;-2.260;2023-01-05T06:42:03;28.10;;;3.30;;
59306;SDS011;47983;53.016;-2.260;2023-01-05T06:44:31;35.13;;;3.67;;
59306;SDS011;47983;53.016;-2.260;2023-01-05T06:46:58;36.47;;;3.60;;
59306;SDS011;47983;53.016;-2.260;2023-01-05T06:49:29;24.23;;;3.42;;
59306;SDS011;47983;53.016;-2.260;2023-01-05T06:51:57;35.05;;;4.10;;
59306;SDS011;47983;53.016;-2.260;2023-01-05T06:54:24;31.58;;;3.92;;
59306;SDS011;47983;53.016;-2.260;2023-01-05T06:56:52;43.38;;;5.70;;
59306;SDS011;47983;53.016;-2.260;2023-01-05T06:59:20;30.77;;;4.20;;
59306;SDS011;47983;53.016;-2.260;2023-01-05T07:01:47;29.88;;;5.22;;
59306;SDS011;47983;53.016;-2.260;2023-01-05T07:04:15;27.48;;;3.65;;
59306;SDS011;47983;53.016;-2.260;2023-01-05T07:06:43;30.42;;;4.10;;
59306;SDS011;47983;53.016;-2.260;2023-01-05T07:09:11;24.50;;;2.88;;
59306;SDS011;47983;53.016;-2.260;2023-01-05T07:11:38;34.53;;;3.70;;
59306;SDS011;47983;53.016;-2.260;2023-01-05T07:14:06;27.33;;;3.10;;
59306;SDS011;47983;53.016;-2.260;2023-01-05T07:16:34;33.28;;;3.75;;
59306;SDS011;47983;53.016;-2.260;2023-01-05T07:19:01;28.35;;;4.15;;
59306;SDS011;47983;53.016;-2.260;2023-01-05T07:21:29;33.58;;;5.57;;
59306;SDS011;47983;53.016;-2.260;2023-01-05T07:23:57;31.80;;;6.57;;
59306;SDS011;47983;53.016;-2.260;2023-01-05T07:26:24;38.08;;;4.97;;
59306;SDS011;47983;53.016;-2.260;2023-01-05T07:28:52;31.65;;;3.30;;
59306;SDS011;47983;53.016;-2.260;2023-01-05T07:31:20;32.50;;;3.97;;
59306;SDS011;47983;53.016;-2.260;2023-01-05T07:33:47;23.85;;;2.63;;
59306;SDS011;47983;53.016;-2.260;2023-01-05T07:36:15;27.63;;;3.95;;
59306;SDS011;47983;53.016;-2.260;2023-01-05T07:38:43;22.55;;;2.67;;
59306;SDS011;47983;53.016;-2.260;2023-01-05T07:41:10;32.55;;;3.63;;
59306;SDS011;47983;53.016;-2.260;2023-01-05T07:43:38;36.35;;;3.90;;
59306;SDS011;47983;53.016;-2.260;2023-01-05T07:46:06;32.03;;;4.68;;
59306;SDS011;47983;53.016;-2.260;2023-01-05T07:48:35;32.72;;;3.50;;
59306;SDS011;47983;53.016;-2.260;2023-01-05T07:51:03;49.95;;;4.30;;
59306;SDS011;47983;53.016;-2.260;2023-01-05T07:53:32;32.88;;;3.20;;
59306;SDS011;47983;53.016;-2.260;2023-01-05T07:56:10;31.02;;;3.70;;
59306;SDS011;47983;53.016;-2.260;2023-01-05T07:58:39;38.50;;;5.03;;
59306;SDS011;47983;53.016;-2.260;2023-01-05T08:01:08;36.28;;;3.17;;
59306;SDS011;47983;53.016;-2.260;2023-01-05T08:03:40;35.92;;;4.20;;
59306;SDS011;47983;53.016;-2.260;2023-01-05T08:06:08;38.40;;;5.18;;
59306;SDS011;47983;53.016;-2.260;2023-01-05T08:08:38;27.73;;;5.25;;
59306;SDS011;47983;53.016;-2.260;2023-01-05T08:11:07;29.67;;;3.42;;
59306;SDS011;47983;53.016;-2.260;2023-01-05T08:13:35;21.27;;;3.38;;
59306;SDS011;47983;53.016;-2.260;2023-01-05T08:16:22;24.90;;;2.83;;
59306;SDS011;47983;53.016;-2.260;2023-01-05T08:18:49;29.60;;;3.70;;
59306;SDS011;47983;53.016;-2.260;2023-01-05T08:21:17;30.80;;;3.67;;
59306;SDS011;47983;53.016;-2.260;2023-01-05T08:23:45;31.40;;;3.00;;
59306;SDS011;47983;53.016;-2.260;2023-01-05T08:26:15;24.45;;;4.25;;
59306;SDS011;47983;53.016;-2.260;2023-01-05T08:28:44;22.20;;;3.40;;
59306;SDS011;47983;53.016;-2.260;2023-01-05T08:31:13;28.63;;;4.13;;
59306;SDS011;47983;53.016;-2.260;2023-01-05T08:33:46;17.73;;;2.90;;
59306;SDS011;47983;53.016;-2.260;2023-01-05T08:36:15;25.00;;;3.65;;
59306;SDS011;47983;53.016;-2.260;2023-01-05T08:38:46;27.30;;;4.13;;
59306;SDS011;47983;53.016;-2.260;2023-01-05T08:41:15;26.87;;;2.67;;
59306;SDS011;47983;53.016;-2.260;2023-01-05T08:43:47;27.42;;;3.58;;
59306;SDS011;47983;53.016;-2.260;2023-01-05T08:46:19;19.40;;;3.03;;
59306;SDS011;47983;53.016;-2.260;2023-01-05T08:48:49;23.85;;;2.83;;
59306;SDS011;47983;53.016;-2.260;2023-01-05T08:51:18;18.13;;;2.53;;
59306;SDS011;47983;53.016;-2.260;2023-01-05T08:53:46;20.63;;;2.70;;
59306;SDS011;47983;53.016;-2.260;2023-01-05T08:56:14;26.00;;;3.00;;
59306;SDS011;47983;53.016;-2.260;2023-01-05T08:58:43;26.55;;;3.88;;
59306;SDS011;47983;53.016;-2.260;2023-01-05T09:01:11;21.00;;;3.40;;
59306;SDS011;47983;53.016;-2.260;2023-01-05T09:03:41;18.83;;;4.88;;
59306;SDS011;47983;53.016;-2.260;2023-01-05T09:06:09;21.73;;;4.32;;
59306;SDS011;47983;53.016;-2.260;2023-01-05T09:08:39;20.88;;;3.78;;
59306;SDS011;47983;53.016;-2.260;2023-01-05T09:11:12;25.35;;;3.50;;
59306;SDS011;47983;53.016;-2.260;2023-01-05T09:13:55;18.13;;;3.35;;
59306;SDS011;47983;53.016;-2.260;2023-01-05T09:16:26;25.25;;;4.45;;
59306;SDS011;47983;53.016;-2.260;2023-01-05T09:19:15;22.08;;;3.30;;
59306;SDS011;47983;53.016;-2.260;2023-01-05T09:21:43;17.95;;;3.22;;
59306;SDS011;47983;53.016;-2.260;2023-01-05T09:24:10;18.13;;;2.85;;
59306;SDS011;47983;53.016;-2.260;2023-01-05T09:26:39;17.08;;;2.50;;
59306;SDS011;47983;53.016;-2.260;2023-01-05T09:29:08;17.10;;;1.95;;
59306;SDS011;47983;53.016;-2.260;2023-01-05T09:31:36;15.00;;;2.33;;
59306;SDS011;47983;53.016;-2.260;2023-01-05T09:34:05;23.00;;;3.13;;
59306;SDS011;47983;53.016;-2.260;2023-01-05T09:36:33;20.30;;;2.33;;
59306;SDS011;47983;53.016;-2.260;2023-01-05T09:39:02;18.02;;;3.05;;
59306;SDS011;47983;53.016;-2.260;2023-01-05T09:41:39;14.10;;;3.17;;
59306;SDS011;47983;53.016;-2.260;2023-01-05T09:44:25;13.80;;;2.10;;
59306;SDS011;47983;53.016;-2.260;2023-01-05T09:47:03;13.20;;;1.98;;
59306;SDS011;47983;53.016;-2.260;2023-01-05T09:49:40;16.60;;;3.20;;
59306;SDS011;47983;53.016;-2.260;2023-01-05T09:52:08;9.13;;;2.03;;
59306;SDS011;47983;53.016;-2.260;2023-01-05T09:54:38;21.23;;;2.58;;
59306;SDS011;47983;53.016;-2.260;2023-01-05T09:57:12;12.55;;;2.20;;
59306;SDS011;47983;53.016;-2.260;2023-01-05T09:59:55;19.15;;;2.28;;
59306;SDS011;47983;53.016;-2.260;2023-01-05T10:02:31;18.50;;;2.47;;
59306;SDS011;47983;53.016;-2.260;2023-01-05T10:05:03;10.52;;;1.98;;
59306;SDS011;47983;53.016;-2.260;2023-01-05T10:10:07;10.32;;;2.10;;
59306;SDS011;47983;53.016;-2.260;2023-01-05T10:12:55;16.10;;;2.00;;
59306;SDS011;47983;53.016;-2.260;2023-01-05T10:15:31;14.15;;;3.15;;
59306;SDS011;47983;53.016;-2.260;2023-01-05T10:18:07;13.63;;;2.55;;
59306;SDS011;47983;53.016;-2.260;2023-01-05T10:20:44;9.93;;;2.17;;
59306;SDS011;47983;53.016;-2.260;2023-01-05T10:34:31;10.30;;;1.75;;
59306;SDS011;47983;53.016;-2.260;2023-01-05T10:45:07;9.15;;;2.30;;
59306;SDS011;47983;53.016;-2.260;2023-01-05T10:47:39;10.15;;;2.70;;
59306;SDS011;47983;53.016;-2.260;2023-01-05T10:53:35;8.80;;;2.45;;
59306;SDS011;47983;53.016;-2.260;2023-01-05T10:56:02;8.70;;;1.70;;
59306;SDS011;47983;53.016;-2.260;2023-01-05T10:58:34;7.88;;;1.88;;
59306;SDS011;47983;53.016;-2.260;2023-01-05T11:01:05;11.32;;;3.13;;
59306;SDS011;47983;53.016;-2.260;2023-01-05T11:06:48;7.07;;;1.52;;
59306;SDS011;47983;53.016;-2.260;2023-01-05T11:09:18;10.00;;;2.13;;
59306;SDS011;47983;53.016;-2.260;2023-01-05T11:11:58;10.10;;;2.72;;
59306;SDS011;47983;53.016;-2.260;2023-01-05T11:14:28;8.53;;;2.20;;
59306;SDS011;47983;53.016;-2.260;2023-01-05T11:17:04;8.57;;;1.88;;
59306;SDS011;47983;53.016;-2.260;2023-01-05T11:19:39;10.52;;;1.80;;
59306;SDS011;47983;53.016;-2.260;2023-01-05T11:22:45;11.15;;;1.70;;
59306;SDS011;47983;53.016;-2.260;2023-01-05T11:25:19;6.65;;;1.33;;
59306;SDS011;47983;53.016;-2.260;2023-01-05T11:30:46;8.77;;;2.38;;
59306;SDS011;47983;53.016;-2.260;2023-01-05T11:33:28;12.38;;;1.85;;
59306;SDS011;47983;53.016;-2.260;2023-01-05T11:35:59;7.97;;;1.13;;
59306;SDS011;47983;53.016;-2.260;2023-01-05T11:38:30;6.47;;;1.23;;
59306;SDS011;47983;53.016;-2.260;2023-01-05T11:40:58;5.60;;;0.90;;
59306;SDS011;47983;53.016;-2.260;2023-01-05T11:43:27;7.80;;;1.35;;
59306;SDS011;47983;53.016;-2.260;2023-01-05T11:46:01;9.55;;;1.00;;
59306;SDS011;47983;53.016;-2.260;2023-01-05T11:48:31;4.13;;;1.00;;
59306;SDS011;47983;53.016;-2.260;2023-01-05T11:51:01;3.92;;;2.13;;
59306;SDS011;47983;53.016;-2.260;2023-01-05T11:56:02;8.90;;;1.75;;
59306;SDS011;47983;53.016;-2.260;2023-01-05T11:58:51;6.03;;;1.13;;
59306;SDS011;47983;53.016;-2.260;2023-01-05T12:08:00;6.13;;;2.53;;
59306;SDS011;47983;53.016;-2.260;2023-01-05T12:29:00;6.15;;;1.23;;
59306;SDS011;47983;53.016;-2.260;2023-01-05T12:40:51;5.07;;;1.00;;
59306;SDS011;47983;53.016;-2.260;2023-01-05T12:43:31;5.95;;;1.15;;
59306;SDS011;47983;53.016;-2.260;2023-01-05T12:46:23;9.25;;;1.38;;
59306;SDS011;47983;53.016;-2.260;2023-01-05T12:49:09;7.45;;;1.20;;
59306;SDS011;47983;53.016;-2.260;2023-01-05T12:51:47;11.70;;;1.60;;
59306;SDS011;47983;53.016;-2.260;2023-01-05T12:57:17;7.28;;;1.55;;
59306;SDS011;47983;53.016;-2.260;2023-01-05T13:00:11;13.75;;;1.95;;
59306;SDS011;47983;53.016;-2.260;2023-01-05T13:02:42;16.42;;;1.90;;
59306;SDS011;47983;53.016;-2.260;2023-01-05T13:08:14;11.95;;;1.60;;
59306;SDS011;47983;53.016;-2.260;2023-01-05T13:13:34;11.45;;;1.85;;
59306;SDS011;47983;53.016;-2.260;2023-01-05T13:19:03;10.93;;;2.10;;
59306;SDS011;47983;53.016;-2.260;2023-01-05T13:21:44;8.40;;;1.40;;
59306;SDS011;47983;53.016;-2.260;2023-01-05T13:24:18;4.65;;;1.17;;
59306;SDS011;47983;53.016;-2.260;2023-01-05T13:26:54;6.00;;;1.45;;
59306;SDS011;47983;53.016;-2.260;2023-01-05T13:29:23;9.27;;;2.60;;
59306;SDS011;47983;53.016;-2.260;2023-01-05T13:35:11;6.90;;;1.60;;
59306;SDS011;47983;53.016;-2.260;2023-01-05T13:54:24;13.77;;;2.97;;
59306;SDS011;47983;53.016;-2.260;2023-01-05T13:57:21;12.95;;;1.60;;
59306;SDS011;47983;53.016;-2.260;2023-01-05T13:59:51;6.57;;;1.20;;
59306;SDS011;47983;53.016;-2.260;2023-01-05T14:02:40;9.90;;;1.08;;
59306;SDS011;47983;53.016;-2.260;2023-01-05T14:05:15;9.55;;;1.40;;
59306;SDS011;47983;53.016;-2.260;2023-01-05T14:07:50;3.75;;;0.75;;
59306;SDS011;47983;53.016;-2.260;2023-01-05T14:10:24;6.95;;;1.20;;
59306;SDS011;47983;53.016;-2.260;2023-01-05T14:12:55;6.00;;;0.80;;
59306;SDS011;47983;53.016;-2.260;2023-01-05T14:15:37;6.75;;;1.05;;
59306;SDS011;47983;53.016;-2.260;2023-01-05T14:18:10;5.47;;;0.80;;
59306;SDS011;47983;53.016;-2.260;2023-01-05T14:25:53;3.42;;;1.00;;
59306;SDS011;47983;53.016;-2.260;2023-01-05T14:33:51;48.55;;;12.52;;
59306;SDS011;47983;53.016;-2.260;2023-01-05T14:41:51;2.97;;;0.68;;
59306;SDS011;47983;53.016;-2.260;2023-01-05T14:44:35;4.78;;;2.13;;
59306;SDS011;47983;53.016;-2.260;2023-01-05T14:47:07;9.05;;;1.60;;
59306;SDS011;47983;53.016;-2.260;2023-01-05T14:49:42;2.70;;;0.38;;
59306;SDS011;47983;53.016;-2.260;2023-01-05T15:00:47;4.68;;;1.35;;
59306;SDS011;47983;53.016;-2.260;2023-01-05T15:03:35;9.90;;;4.70;;
59306;SDS011;47983;53.016;-2.260;2023-01-05T15:06:17;2.60;;;0.90;;
59306;SDS011;47983;53.016;-2.260;2023-01-05T15:12:04;7.00;;;3.65;;
59306;SDS011;47983;53.016;-2.260;2023-01-05T15:23:18;9.45;;;1.77;;
59306;SDS011;47983;53.016;-2.260;2023-01-05T15:29:27;4.93;;;2.72;;
59306;SDS011;47983;53.016;-2.260;2023-01-05T15:32:16;5.85;;;1.08;;
59306;SDS011;47983;53.016;-2.260;2023-01-05T15:37:56;6.40;;;0.80;;
59306;SDS011;47983;53.016;-2.260;2023-01-05T15:40:46;7.38;;;0.95;;
59306;SDS011;47983;53.016;-2.260;2023-01-05T15:43:15;3.80;;;0.98;;
59306;SDS011;47983;53.016;-2.260;2023-01-05T15:45:47;6.00;;;0.98;;
59306;SDS011;47983;53.016;-2.260;2023-01-05T15:48:25;5.80;;;1.00;;
59306;SDS011;47983;53.016;-2.260;2023-01-05T15:50:57;8.20;;;1.85;;
59306;SDS011;47983;53.016;-2.260;2023-01-05T15:53:26;4.65;;;0.70;;
59306;SDS011;47983;53.016;-2.260;2023-01-05T15:56:22;11.63;;;1.70;;
59306;SDS011;47983;53.016;-2.260;2023-01-05T15:59:02;6.80;;;1.45;;
59306;SDS011;47983;53.016;-2.260;2023-01-05T16:01:43;3.42;;;1.63;;
59306;SDS011;47983;53.016;-2.260;2023-01-05T16:04:12;9.85;;;3.22;;
59306;SDS011;47983;53.016;-2.260;2023-01-05T16:06:43;3.78;;;1.27;;
59306;SDS011;47983;53.016;-2.260;2023-01-05T16:09:20;7.43;;;1.05;;
59306;SDS011;47983;53.016;-2.260;2023-01-05T16:11:50;6.15;;;2.28;;
59306;SDS011;47983;53.016;-2.260;2023-01-05T16:14:24;6.95;;;0.80;;
59306;SDS011;47983;53.016;-2.260;2023-01-05T16:17:09;7.55;;;1.10;;
59306;SDS011;47983;53.016;-2.260;2023-01-05T16:19:47;6.00;;;0.73;;
59306;SDS011;47983;53.016;-2.260;2023-01-05T16:22:31;4.70;;;0.93;;
59306;SDS011;47983;53.016;-2.260;2023-01-05T16:25:16;2.83;;;1.02;;
59306;SDS011;47983;53.016;-2.260;2023-01-05T16:27:54;5.32;;;1.42;;
59306;SDS011;47983;53.016;-2.260;2023-01-05T16:35:48;11.52;;;3.30;;
59306;SDS011;47983;53.016;-2.260;2023-01-05T16:40:56;13.60;;;2.88;;
59306;SDS011;47983;53.016;-2.260;2023-01-05T16:51:19;10.02;;;2.28;;
59306;SDS011;47983;53.016;-2.260;2023-01-05T16:53:47;6.15;;;0.70;;
59306;SDS011;47983;53.016;-2.260;2023-01-05T16:59:02;6.07;;;0.82;;
59306;SDS011;47983;53.016;-2.260;2023-01-05T17:01:50;7.15;;;1.85;;
59306;SDS011;47983;53.016;-2.260;2023-01-05T17:04:17;9.60;;;1.90;;
59306;SDS011;47983;53.016;-2.260;2023-01-05T17:06:47;8.30;;;0.70;;
59306;SDS011;47983;53.016;-2.260;2023-01-05T17:09:29;2.22;;;1.00;;
59306;SDS011;47983;53.016;-2.260;2023-01-05T17:11:58;6.63;;;0.90;;
59306;SDS011;47983;53.016;-2.260;2023-01-05T17:14:25;4.65;;;0.85;;
59306;SDS011;47983;53.016;-2.260;2023-01-05T17:16:54;7.20;;;1.60;;
59306;SDS011;47983;53.016;-2.260;2023-01-05T17:19:22;1.77;;;0.43;;
59306;SDS011;47983;53.016;-2.260;2023-01-05T17:21:52;1.35;;;0.30;;
59306;SDS011;47983;53.016;-2.260;2023-01-05T17:24:22;4.75;;;0.60;;
59306;SDS011;47983;53.016;-2.260;2023-01-05T17:26:51;3.97;;;0.50;;
59306;SDS011;47983;53.016;-2.260;2023-01-05T17:29:24;3.45;;;0.40;;
59306;SDS011;47983;53.016;-2.260;2023-01-05T17:31:53;2.53;;;1.05;;
59306;SDS011;47983;53.016;-2.260;2023-01-05T17:34:22;2.22;;;0.93;;
59306;SDS011;47983;53.016;-2.260;2023-01-05T17:36:53;6.35;;;1.35;;
59306;SDS011;47983;53.016;-2.260;2023-01-05T17:39:25;6.97;;;3.80;;
59306;SDS011;47983;53.016;-2.260;2023-01-05T17:41:53;3.67;;;2.03;;
59306;SDS011;47983;53.016;-2.260;2023-01-05T17:44:40;2.60;;;0.55;;
59306;SDS011;47983;53.016;-2.260;2023-01-05T17:47:08;2.80;;;0.52;;
59306;SDS011;47983;53.016;-2.260;2023-01-05T17:49:36;3.55;;;0.80;;
59306;SDS011;47983;53.016;-2.260;2023-01-05T17:52:03;6.57;;;0.85;;
59306;SDS011;47983;53.016;-2.260;2023-01-05T17:54:31;5.15;;;0.60;;
59306;SDS011;47983;53.016;-2.260;2023-01-05T17:56:58;5.45;;;1.58;;
59306;SDS011;47983;53.016;-2.260;2023-01-05T17:59:26;0.95;;;0.43;;
59306;SDS011;47983;53.016;-2.260;2023-01-05T18:01:54;3.72;;;0.75;;
59306;SDS011;47983;53.016;-2.260;2023-01-05T18:04:22;6.28;;;1.63;;
59306;SDS011;47983;53.016;-2.260;2023-01-05T18:06:53;3.22;;;0.90;;
59306;SDS011;47983;53.016;-2.260;2023-01-05T18:09:20;3.65;;;1.30;;
59306;SDS011;47983;53.016;-2.260;2023-01-05T18:11:49;9.02;;;2.08;;